createdAt,value
2018-04-25T00:01:19.480Z,25.53
2018-04-25T00:03:47.063Z,23.13
2018-04-25T00:06:43.125Z,21.70
2018-04-25T00:09:10.833Z,29.60
2018-04-25T00:11:41.117Z,17.17
2018-04-25T00:14:13.182Z,25.73
2018-04-25T00:16:40.743Z,23.60
2018-04-25T00:19:10.104Z,27.83
2018-04-25T00:21:37.709Z,13.73
2018-04-25T00:29:56.884Z,28.17
2018-04-25T00:35:00.684Z,23.10
2018-04-25T00:37:28.313Z,36.70
2018-04-25T00:39:55.938Z,34.67
2018-04-25T00:50:27.546Z,25.43
2018-04-25T00:52:55.091Z,28.57
2018-04-25T00:55:23.322Z,37.73
2018-04-25T00:57:50.973Z,26.33
2018-04-25T01:09:00.420Z,35.37
2018-04-25T01:11:28.883Z,32.00
2018-04-25T01:13:56.545Z,32.70
2018-04-25T01:24:50.485Z,28.13
2018-04-25T01:27:18.056Z,44.07
2018-04-25T01:29:46.617Z,33.83
2018-04-25T01:32:14.263Z,35.37
2018-04-25T01:43:20.823Z,34.13
2018-04-25T01:49:07.503Z,39.70
2018-04-25T02:00:40.025Z,42.70
2018-04-25T02:03:07.135Z,31.83
2018-04-25T02:05:34.751Z,43.77
2018-04-25T02:08:05.123Z,32.57
2018-04-25T02:13:16.910Z,34.10
2018-04-25T02:15:48.769Z,39.83
2018-04-25T02:18:17.578Z,35.90
2018-04-25T02:20:45.183Z,33.83
2018-04-25T02:23:12.801Z,45.53
2018-04-25T02:25:44.879Z,39.53
2018-04-25T02:28:16.975Z,40.40
2018-04-25T02:30:46.136Z,41.03
2018-04-25T02:33:17.640Z,38.07
2018-04-25T02:35:45.303Z,32.43
2018-04-25T02:38:12.871Z,43.53
2018-04-25T02:40:40.423Z,32.85
2018-04-25T02:43:10.374Z,38.30
2018-04-25T02:48:17.953Z,28.13
2018-04-25T02:50:47.118Z,43.67
2018-04-25T02:53:14.658Z,34.77
2018-04-25T02:55:42.217Z,43.07
2018-04-25T02:58:09.850Z,38.60
2018-04-25T03:00:40.931Z,40.70
2018-04-25T03:03:12.730Z,31.83
2018-04-25T03:05:44.705Z,42.72
2018-04-25T03:08:14.198Z,47.30
2018-04-25T03:10:41.832Z,32.90
2018-04-25T03:13:10.347Z,41.13
2018-04-25T03:15:37.850Z,39.73
2018-04-25T03:18:06.445Z,42.93
2018-04-25T03:20:34.654Z,36.83
2018-04-25T03:23:02.316Z,37.53
2018-04-25T03:25:29.872Z,34.00
2018-04-25T03:27:57.931Z,31.30
2018-04-25T03:30:25.467Z,39.70
2018-04-25T03:32:53.035Z,40.30
2018-04-25T03:35:21.573Z,32.67
2018-04-25T03:37:57.205Z,42.63
2018-04-25T03:40:28.603Z,36.30
2018-04-25T03:42:56.211Z,34.37
2018-04-25T03:45:24.419Z,39.17
2018-04-25T03:47:52.058Z,42.70
2018-04-25T03:50:19.606Z,36.97
2018-04-25T03:52:48.953Z,34.97
2018-04-25T03:55:17.165Z,47.00
2018-04-25T03:57:49.992Z,42.33
2018-04-25T04:00:17.620Z,34.43
2018-04-25T04:02:45.140Z,36.20
2018-04-25T04:05:13.638Z,54.27
2018-04-25T04:07:41.477Z,40.87
2018-04-25T04:10:10.419Z,41.47
2018-04-25T04:12:41.824Z,39.00
2018-04-25T04:15:10.591Z,36.10
2018-04-25T04:17:38.162Z,33.00
2018-04-25T04:20:05.658Z,32.00
2018-04-25T04:22:33.207Z,35.90
2018-04-25T04:25:00.788Z,36.93
2018-04-25T04:27:30.962Z,37.33
2018-04-25T04:29:58.607Z,32.83
2018-04-25T04:32:26.594Z,43.03
2018-04-25T04:34:54.876Z,35.93
2018-04-25T04:37:23.008Z,36.53
2018-04-25T04:39:50.537Z,35.27
2018-04-25T04:42:18.067Z,27.17
2018-04-25T04:44:46.743Z,30.77
2018-04-25T04:47:15.642Z,25.97
2018-04-25T04:49:45.684Z,26.17
2018-04-25T04:52:13.203Z,24.30
2018-04-25T04:54:41.764Z,25.60
2018-04-25T04:57:09.335Z,28.63
2018-04-25T04:59:38.175Z,24.43
2018-04-25T05:02:08.984Z,32.13
2018-04-25T05:04:40.956Z,29.63
2018-04-25T05:07:13.073Z,27.57
2018-04-25T05:09:40.607Z,32.50
2018-04-25T05:12:08.132Z,26.00
2018-04-25T05:14:36.357Z,41.27
2018-04-25T05:17:03.990Z,29.23
2018-04-25T05:19:37.913Z,30.67
2018-04-25T05:24:45.175Z,21.90
2018-04-25T05:27:12.770Z,25.67
2018-04-25T05:29:40.353Z,37.70
2018-04-25T05:32:07.967Z,32.00
2018-04-25T05:34:37.950Z,33.53
2018-04-25T05:39:46.744Z,23.43
2018-04-25T05:44:52.963Z,36.53
2018-04-25T05:47:21.491Z,35.13
2018-04-25T05:49:49.059Z,28.40
2018-04-25T05:52:18.221Z,31.60
2018-04-25T05:54:46.670Z,29.12
2018-04-25T05:57:22.432Z,35.93
2018-04-25T05:59:53.840Z,31.07
2018-04-25T06:02:21.435Z,29.97
2018-04-25T06:04:48.964Z,24.77
2018-04-25T06:07:18.465Z,19.50
2018-04-25T06:09:49.376Z,26.33
2018-04-25T06:12:17.813Z,32.10
2018-04-25T06:14:54.790Z,28.63
2018-04-25T06:17:22.585Z,29.33
2018-04-25T06:19:50.216Z,23.47
2018-04-25T06:22:17.775Z,36.67
2018-04-25T06:24:45.331Z,30.00
2018-04-25T06:27:16.103Z,25.47
2018-04-25T06:29:46.635Z,31.57
2018-04-25T06:32:18.614Z,27.70
2018-04-25T06:34:46.848Z,25.23
2018-04-25T06:37:14.407Z,19.73
2018-04-25T06:39:41.961Z,18.37
2018-04-25T06:42:10.331Z,23.87
2018-04-25T06:44:41.353Z,19.43
2018-04-25T06:47:14.002Z,21.63
2018-04-25T06:49:42.515Z,18.17
2018-04-25T06:52:10.158Z,29.17
2018-04-25T06:54:37.743Z,26.77
2018-04-25T06:57:05.263Z,32.00
2018-04-25T06:59:32.807Z,31.97
2018-04-25T07:02:03.353Z,29.30
2018-04-25T07:04:33.861Z,25.30
2018-04-25T07:07:02.738Z,27.60
2018-04-25T07:09:32.851Z,21.63
2018-04-25T07:12:00.529Z,30.00
2018-04-25T07:14:28.090Z,31.57
2018-04-25T07:16:55.622Z,31.47
2018-04-25T07:19:24.840Z,25.73
2018-04-25T07:21:55.079Z,26.80
2018-04-25T07:24:29.195Z,21.93
2018-04-25T07:26:56.763Z,19.60
2018-04-25T07:29:24.357Z,36.20
2018-04-25T07:31:52.994Z,31.53
2018-04-25T07:34:20.635Z,30.57
2018-04-25T07:36:49.640Z,22.23
2018-04-25T07:44:40.896Z,23.13
2018-04-25T07:47:08.446Z,19.97
2018-04-25T07:49:36.073Z,18.30
2018-04-25T07:52:03.788Z,16.17
2018-04-25T07:54:33.903Z,37.00
2018-04-25T07:57:13.929Z,23.27
2018-04-25T08:02:45.112Z,22.83
2018-04-25T08:05:12.777Z,20.13
2018-04-25T08:07:40.420Z,21.70
2018-04-25T08:19:28.190Z,22.90
2018-04-25T08:21:55.817Z,22.67
2018-04-25T08:24:23.351Z,14.57
2018-04-25T08:26:51.088Z,16.73
2018-04-25T08:35:01.973Z,26.43
2018-04-25T08:37:29.571Z,14.50
2018-04-25T08:39:57.103Z,30.30
2018-04-25T08:42:24.696Z,25.50
2018-04-25T08:44:54.754Z,22.33
2018-04-25T08:47:25.123Z,18.30
2018-04-25T08:49:56.967Z,12.53
2018-04-25T08:52:28.826Z,17.63
2018-04-25T08:54:56.352Z,20.20
2018-04-25T08:57:23.931Z,18.77
2018-04-25T08:59:51.523Z,13.10
2018-04-25T09:02:19.116Z,18.30
2018-04-25T09:04:46.663Z,12.50
2018-04-25T09:07:17.132Z,13.10
2018-04-25T09:09:44.671Z,17.90
2018-04-25T09:12:12.187Z,11.97
2018-04-25T09:14:39.742Z,25.03
2018-04-25T09:17:07.305Z,24.87
2018-04-25T09:19:37.093Z,20.53
2018-04-25T09:22:07.497Z,17.57
2018-04-25T09:24:37.885Z,21.63
2018-04-25T09:27:05.512Z,20.43
2018-04-25T09:29:33.110Z,20.50
2018-04-25T09:32:00.649Z,16.70
2018-04-25T09:34:28.302Z,13.40
2018-04-25T09:36:56.473Z,17.57
2018-04-25T09:39:25.670Z,11.60
2018-04-25T09:41:57.060Z,5.63
2018-04-25T09:44:24.679Z,8.73
2018-04-25T09:46:52.223Z,8.70
2018-04-25T09:49:19.739Z,5.43
2018-04-25T09:51:47.344Z,5.30
2018-04-25T09:54:14.915Z,8.50
2018-04-25T09:56:42.536Z,10.23
2018-04-25T09:59:10.906Z,11.37
2018-04-25T10:04:11.951Z,10.20
2018-04-25T10:06:39.472Z,7.07
2018-04-25T10:09:07.038Z,9.00
2018-04-25T10:19:48.167Z,13.47
2018-04-25T10:22:15.784Z,12.67
2018-04-25T10:24:43.383Z,13.77
2018-04-25T10:27:10.969Z,27.47
2018-04-25T10:29:38.555Z,20.27
2018-04-25T10:32:17.292Z,13.40
2018-04-25T10:37:20.685Z,14.20
2018-04-25T10:39:48.316Z,9.13
2018-04-25T10:42:15.885Z,9.10
2018-04-25T10:44:45.142Z,6.77
2018-04-25T10:47:17.119Z,21.60
2018-04-25T10:49:48.928Z,12.37
2018-04-25T10:52:22.168Z,11.43
2018-04-25T10:54:49.789Z,21.57
2018-04-25T10:57:17.415Z,18.17
2018-04-25T10:59:45.082Z,18.90
2018-04-25T11:05:02.665Z,11.87
2018-04-25T11:07:35.069Z,15.93
2018-04-25T11:10:09.011Z,13.63
2018-04-25T11:12:36.710Z,13.33
2018-04-25T11:15:04.251Z,12.67
2018-04-25T11:17:32.198Z,7.37
2018-04-25T11:28:39.563Z,13.27
2018-04-25T11:31:07.131Z,14.30
2018-04-25T11:33:34.920Z,17.27
2018-04-25T11:45:11.118Z,12.83
2018-04-25T11:47:38.732Z,17.87
2018-04-25T11:50:06.327Z,6.47
2018-04-25T11:52:34.010Z,16.00
2018-04-25T11:55:05.210Z,10.00
2018-04-25T11:57:38.226Z,8.27
2018-04-25T12:00:06.523Z,15.50
2018-04-25T12:02:34.255Z,12.60
2018-04-25T12:05:01.901Z,12.03
2018-04-25T12:07:29.350Z,15.13
2018-04-25T12:09:56.985Z,14.83
2018-04-25T12:12:26.964Z,12.83
2018-04-25T12:19:58.227Z,16.13
2018-04-25T12:22:25.768Z,11.17
2018-04-25T12:24:53.418Z,13.30
2018-04-25T12:27:21.131Z,20.20
2018-04-25T12:29:53.051Z,12.93
2018-04-25T12:32:23.199Z,14.20
2018-04-25T12:34:56.554Z,13.83
2018-04-25T12:37:25.079Z,22.67
2018-04-25T12:39:52.583Z,15.07
2018-04-25T12:42:21.852Z,9.70
2018-04-25T12:47:27.056Z,20.27
2018-04-25T12:49:59.456Z,20.07
2018-04-25T12:52:29.805Z,18.23
2018-04-25T12:54:57.359Z,17.20
2018-04-25T12:57:24.993Z,18.60
2018-04-25T12:59:52.674Z,19.10
2018-04-25T13:02:21.274Z,11.47
2018-04-25T13:04:50.771Z,14.07
2018-04-25T13:07:21.306Z,12.73
2018-04-25T13:09:50.286Z,14.47
2018-04-25T13:12:17.928Z,13.10
2018-04-25T13:14:45.484Z,10.27
2018-04-25T13:17:13.061Z,20.70
2018-04-25T13:22:30.856Z,12.77
2018-04-25T13:27:36.708Z,9.63
2018-04-25T13:30:04.267Z,11.67
2018-04-25T13:32:31.927Z,11.97
2018-04-25T13:34:59.565Z,13.47
2018-04-25T13:46:08.283Z,12.03
2018-04-25T13:48:35.880Z,8.43
2018-04-25T13:51:03.414Z,13.83
2018-04-25T14:03:06.799Z,18.33
2018-04-25T14:05:34.343Z,7.90
2018-04-25T14:08:02.005Z,17.63
2018-04-25T14:10:30.877Z,10.63
2018-04-25T14:21:36.945Z,17.93
2018-04-25T14:24:04.514Z,10.73
2018-04-25T14:26:32.115Z,13.37
2018-04-25T14:32:11.065Z,15.23
2018-04-25T14:34:39.926Z,13.83
2018-04-25T14:37:08.137Z,10.13
2018-04-25T14:39:35.850Z,12.87
2018-04-25T14:42:03.442Z,12.33
2018-04-25T14:44:31.075Z,7.83
2018-04-25T14:47:01.165Z,10.47
2018-04-25T14:49:31.211Z,8.10
2018-04-25T14:51:59.298Z,15.77
2018-04-25T14:54:28.046Z,11.37
2018-04-25T14:56:55.583Z,18.07
2018-04-25T14:59:23.143Z,8.97
2018-04-25T15:01:51.879Z,15.63
2018-04-25T15:04:22.682Z,24.23
2018-04-25T15:06:53.876Z,15.17
2018-04-25T15:12:24.319Z,14.93
2018-04-25T15:14:51.985Z,19.67
2018-04-25T15:17:19.541Z,18.13
2018-04-25T15:28:04.345Z,11.03
2018-04-25T15:30:31.918Z,17.10
2018-04-25T15:32:59.482Z,14.77
2018-04-25T15:35:27.224Z,16.30
2018-04-25T16:04:16.788Z,9.80
2018-04-25T16:06:44.613Z,15.27
2018-04-25T16:09:12.236Z,18.37
2018-04-25T16:17:53.954Z,12.70
2018-04-25T16:20:21.551Z,13.70
2018-04-25T16:22:49.189Z,12.00
2018-04-25T16:25:16.696Z,11.97
2018-04-25T16:33:18.150Z,13.93
2018-04-25T16:35:46.776Z,13.50
2018-04-25T16:38:14.352Z,12.03
2018-04-25T16:40:41.901Z,19.77
2018-04-25T16:43:09.497Z,13.57
2018-04-25T16:45:38.919Z,14.23
2018-04-25T16:48:07.460Z,15.50
2018-04-25T16:50:38.152Z,16.07
2018-04-25T16:53:06.882Z,17.87
2018-04-25T16:55:34.426Z,17.30
2018-04-25T16:58:01.974Z,17.77
2018-04-25T17:00:29.612Z,18.57
2018-04-25T17:03:02.204Z,16.73
2018-04-25T17:05:30.963Z,27.10
2018-04-25T17:07:59.365Z,19.73
2018-04-25T17:10:31.037Z,16.93
2018-04-25T17:12:58.560Z,17.20
2018-04-25T17:15:26.131Z,19.03
2018-04-25T17:17:53.695Z,19.17
2018-04-25T17:20:26.131Z,20.73
2018-04-25T17:22:57.392Z,24.70
2018-04-25T17:25:26.449Z,15.43
2018-04-25T17:27:55.205Z,20.33
2018-04-25T17:30:22.858Z,24.10
2018-04-25T17:32:50.399Z,17.60
2018-04-25T17:35:18.075Z,14.37
2018-04-25T17:37:49.423Z,17.80
2018-04-25T17:40:19.175Z,16.87
2018-04-25T17:42:47.231Z,27.63
2018-04-25T17:45:14.904Z,19.40
2018-04-25T17:47:42.422Z,16.60
2018-04-25T17:50:09.997Z,22.13
2018-04-25T17:52:37.543Z,21.37
2018-04-25T17:55:07.195Z,17.13
2018-04-25T17:57:37.880Z,21.13
2018-04-25T18:00:06.506Z,19.10
2018-04-25T18:05:12.019Z,16.10
2018-04-25T18:07:39.590Z,22.27
2018-04-25T18:10:07.175Z,23.40
2018-04-25T18:12:39.248Z,19.27
2018-04-25T18:15:06.939Z,23.87
2018-04-25T18:17:39.294Z,22.93
2018-04-25T18:20:07.057Z,25.23
2018-04-25T18:22:34.563Z,16.53
2018-04-25T18:25:02.166Z,21.33
2018-04-25T18:27:29.719Z,19.20
2018-04-25T18:29:58.202Z,20.43
2018-04-25T18:32:26.691Z,31.40
2018-04-25T18:34:58.075Z,18.77
2018-04-25T18:37:25.745Z,25.63
2018-04-25T18:39:53.262Z,24.07
2018-04-25T18:42:20.783Z,24.70
2018-04-25T18:44:48.342Z,20.17
2018-04-25T18:47:16.726Z,22.67
2018-04-25T18:49:45.041Z,20.97
2018-04-25T18:52:15.199Z,28.63
2018-04-25T18:54:43.904Z,20.37
2018-04-25T18:57:31.219Z,27.50
2018-04-25T18:59:58.778Z,16.23
2018-04-25T19:02:26.331Z,28.37
2018-04-25T19:04:57.884Z,24.80
2018-04-25T19:07:26.417Z,24.57
2018-04-25T19:09:55.380Z,24.97
2018-04-25T19:12:22.977Z,19.20
2018-04-25T19:14:50.551Z,17.47
2018-04-25T19:17:18.088Z,17.50
2018-04-25T19:19:45.647Z,21.47
2018-04-25T19:22:15.293Z,24.67
2018-04-25T19:24:42.913Z,17.23
2018-04-25T19:27:15.033Z,15.27
2018-04-25T19:29:43.539Z,21.67
2018-04-25T19:32:11.088Z,26.77
2018-04-25T19:34:38.652Z,16.47
2018-04-25T19:37:06.151Z,18.10
2018-04-25T19:39:34.614Z,18.67
2018-04-25T19:42:02.922Z,19.77
2018-04-25T19:44:31.380Z,20.13
2018-04-25T19:46:58.918Z,19.67
2018-04-25T19:49:26.504Z,19.17
2018-04-25T19:51:54.015Z,25.60
2018-04-25T19:54:22.196Z,14.33
2018-04-25T19:56:50.534Z,20.60
2018-04-25T19:59:19.015Z,22.10
2018-04-25T20:01:49.112Z,17.13
2018-04-25T20:04:16.675Z,22.50
2018-04-25T20:06:44.227Z,22.57
2018-04-25T20:09:11.791Z,18.23
2018-04-25T20:11:39.334Z,23.67
2018-04-25T20:14:06.906Z,23.70
2018-04-25T20:16:35.479Z,27.97
2018-04-25T20:19:03.172Z,24.77
2018-04-25T20:21:30.688Z,27.60
2018-04-25T20:23:58.222Z,22.00
2018-04-25T20:26:25.839Z,23.07
2018-04-25T20:28:53.364Z,17.33
2018-04-25T20:31:24.441Z,25.10
2018-04-25T20:33:53.456Z,19.00
2018-04-25T20:36:22.017Z,20.27
2018-04-25T20:38:49.468Z,22.70
2018-04-25T20:41:17.023Z,19.23
2018-04-25T20:43:44.799Z,31.10
2018-04-25T20:46:12.322Z,22.33
2018-04-25T20:48:42.484Z,18.47
2018-04-25T20:51:10.871Z,19.30
2018-04-25T20:53:39.147Z,24.00
2018-04-25T20:56:06.683Z,27.53
2018-04-25T20:58:34.268Z,26.77
2018-04-25T21:01:01.727Z,21.50
2018-04-25T21:03:29.288Z,25.57
2018-04-25T21:05:59.396Z,22.50
2018-04-25T21:08:26.964Z,23.80
2018-04-25T21:10:57.475Z,30.43
2018-04-25T21:13:25.028Z,20.67
2018-04-25T21:15:52.527Z,26.03
2018-04-25T21:18:20.060Z,26.50
2018-04-25T21:20:47.613Z,30.10
2018-04-25T21:23:15.221Z,32.50
2018-04-25T21:25:43.709Z,23.77
2018-04-25T21:28:16.132Z,17.37
2018-04-25T21:30:44.346Z,14.10
2018-04-25T21:33:11.902Z,23.43
2018-04-25T21:35:39.430Z,29.03
2018-04-25T21:38:06.987Z,31.53
2018-04-25T21:40:37.150Z,32.23
2018-04-25T21:43:07.240Z,23.17
2018-04-25T21:45:34.879Z,29.07
2018-04-25T21:48:04.827Z,35.47
2018-04-25T21:50:32.327Z,17.17
2018-04-25T21:52:59.850Z,25.30
2018-04-25T21:55:27.465Z,28.23
2018-04-25T21:57:55.084Z,22.67
2018-04-25T22:00:23.476Z,23.07
2018-04-25T22:02:51.067Z,29.17
2018-04-25T22:05:18.943Z,23.27
2018-04-25T22:07:46.511Z,20.80
2018-04-25T22:10:14.040Z,24.13
2018-04-25T22:12:41.558Z,32.03
2018-04-25T22:15:10.079Z,23.30
2018-04-25T22:17:38.778Z,15.27
2018-04-25T22:20:07.043Z,21.00
2018-04-25T22:22:34.598Z,25.60
2018-04-25T22:25:02.124Z,27.63
2018-04-25T22:27:29.651Z,23.10
2018-04-25T22:29:57.223Z,25.67
2018-04-25T22:32:25.900Z,45.30
2018-04-25T22:34:58.355Z,21.10
2018-04-25T22:37:27.247Z,21.43
2018-04-25T22:39:54.821Z,25.90
2018-04-25T22:42:22.363Z,28.67
2018-04-25T22:44:49.867Z,28.20
2018-04-25T22:47:18.507Z,24.30
2018-04-25T22:49:47.056Z,21.60
2018-04-25T22:52:17.399Z,17.77
2018-04-25T22:54:47.445Z,27.83
2018-04-25T22:57:15.010Z,19.23
2018-04-25T22:59:42.571Z,17.87
2018-04-25T23:02:10.115Z,21.10
2018-04-25T23:04:37.636Z,19.50
2018-04-25T23:07:11.911Z,31.27
2018-04-25T23:09:42.216Z,15.43
2018-04-25T23:12:10.825Z,19.43
2018-04-25T23:14:38.315Z,19.07
2018-04-25T23:17:11.324Z,17.30
2018-04-25T23:19:38.822Z,23.53
2018-04-25T23:22:06.369Z,26.60
2018-04-25T23:24:35.044Z,19.63
2018-04-25T23:27:05.338Z,31.27
2018-04-25T23:29:34.158Z,18.93
2018-04-25T23:32:01.763Z,28.57
2018-04-25T23:34:29.274Z,21.73
2018-04-25T23:36:56.839Z,25.17
2018-04-25T23:39:24.363Z,22.87
2018-04-25T23:41:53.607Z,27.30
2018-04-25T23:44:22.088Z,28.23
2018-04-25T23:46:50.504Z,23.07
2018-04-25T23:49:18.080Z,18.90
2018-04-25T23:51:45.683Z,24.43
2018-04-25T23:54:13.191Z,25.20
2018-04-25T23:56:40.755Z,25.47
2018-04-25T23:59:09.043Z,29.23
